Terminal Aerodrome Forecast
Issued by NWS Greer, SC

Home | Current Version | Previous Version | Text Only | Print | Product List | Glossary On
Versions: 1 2 3 4 5 6 7 8 9 10 11 12 13 14 15 16 17 18 19 20 21 22
000
FTUS42 KGSP 241124
TAFAVL
TAF
KAVL 241124Z 2412/2512 31004KT P6SM SCT015 BKN050
      TEMPO 2412/2413 BKN015
     FM241500 33005KT P6SM VCTS BKN040CB
      TEMPO 2417/2421 4SM TSRA OVC025CB
     FM250100 32006KT P6SM SCT200=

USA.gov is the U.S. government's official web portal to all federal, state and local government web resources and services.